Time;durP1;ratioP1;P1;durP2;ratioP2;P2;SDS_P1;SDS_P2;PMS_P1;PMS_P2;Temp;Humidity;BMP_temperature;BMP_pressure;BME280_temperature;BME280_humidity;BME280_pressure;Samples;Min_cycle;Max_cycle;Signal;HPM_P1;HPM_P2
2021/12/22 08:40:22;;;;;;;5.40;3.60;;;13.70;72.20;;;;;;2293370;62;29581;-79
2021/12/22 08:42:49;;;;;;;5.78;3.92;;;13.90;73.20;;;;;;2299444;62;30057;-76
2021/12/22 08:45:15;;;;;;;3.85;3.50;;;14.00;73.70;;;;;;2299232;62;30753;-77
2021/12/22 08:47:42;;;;;;;5.07;3.10;;;14.10;74.20;;;;;;2299422;62;30236;-74
2021/12/22 08:50:08;;;;;;;4.50;3.33;;;14.20;74.50;;;;;;2299721;62;30092;-75
2021/12/22 08:52:34;;;;;;;3.55;3.13;;;14.20;74.70;;;;;;2299554;62;30301;-76
2021/12/22 08:55:04;;;;;;;4.93;3.67;;;14.20;74.90;;;;;;2292020;62;30202;-74
2021/12/22 08:57:29;;;;;;;5.28;3.28;;;14.20;75.10;;;;;;2292037;62;31505;-74
2021/12/22 08:59:55;;;;;;;3.88;3.42;;;14.20;75.20;;;;;;2299617;62;30126;-76
2021/12/22 09:02:21;;;;;;;5.38;3.40;;;14.20;75.20;;;;;;2291857;62;30203;-75
2021/12/22 09:04:47;;;;;;;4.47;3.40;;;14.30;75.20;;;;;;2292045;62;30158;-74
2021/12/22 09:07:19;;;;;;;4.78;3.65;;;14.30;75.10;;;;;;2299563;62;30254;-75
2021/12/22 09:09:44;;;;;;;3.70;3.40;;;14.30;75.10;;;;;;2291793;62;30177;-75
2021/12/22 09:12:19;;;;;;;3.45;3.15;;;14.30;75.00;;;;;;2299607;62;31095;-75
2021/12/22 09:14:45;;;;;;;3.28;2.97;;;14.30;74.90;;;;;;2298614;62;30185;-75
2021/12/22 09:17:11;;;;;;;4.00;3.58;;;14.30;74.80;;;;;;2299290;62;30125;-76
2021/12/22 09:19:40;;;;;;;4.60;3.55;;;14.40;74.70;;;;;;2299481;62;30206;-73
2021/12/22 09:22:05;;;;;;;4.47;3.40;;;14.40;74.60;;;;;;2299299;62;29996;-75
2021/12/22 09:24:34;;;;;;;3.80;3.42;;;14.40;74.40;;;;;;2299146;62;30948;-75
2021/12/22 09:27:00;;;;;;;3.50;2.85;;;14.50;74.40;;;;;;2299540;62;30152;-74
2021/12/22 09:29:29;;;;;;;4.18;3.33;;;14.50;74.20;;;;;;2291833;62;30191;-75
2021/12/22 09:31:56;;;;;;;3.97;3.42;;;14.50;74.00;;;;;;2299617;62;30028;-74
2021/12/22 09:34:22;;;;;;;4.25;2.95;;;14.50;73.90;;;;;;2299451;62;30386;-74
2021/12/22 09:36:48;;;;;;;4.50;3.47;;;14.50;73.90;;;;;;2298634;62;30216;-74
2021/12/22 09:39:14;;;;;;;3.70;3.40;;;14.50;73.70;;;;;;2291743;62;30235;-72
2021/12/22 09:41:42;;;;;;;3.70;3.35;;;14.60;73.60;;;;;;2299327;62;30151;-72
2021/12/22 09:44:08;;;;;;;4.85;3.58;;;14.60;73.60;;;;;;2299006;62;31645;-72
2021/12/22 09:46:39;;;;;;;3.85;3.35;;;14.50;73.50;;;;;;2299352;62;31158;-72
2021/12/22 09:49:23;;;;;;;4.53;3.95;;;14.50;73.50;;;;;;2286256;62;30141;-71
2021/12/22 09:54:37;;;;;;;4.20;3.80;;;14.40;73.50;;;;;;2293737;62;30195;-77
2021/12/22 09:57:03;;;;;;;3.95;3.55;;;14.40;73.50;;;;;;2279107;62;30621;-76
2021/12/22 09:59:31;;;;;;;5.80;4.00;;;14.30;73.50;;;;;;2293702;62;30241;-75
2021/12/22 10:01:56;;;;;;;4.10;3.70;;;14.40;73.50;;;;;;2282530;62;31532;-76
2021/12/22 10:04:22;;;;;;;5.10;3.58;;;14.40;73.40;;;;;;2291947;62;31017;-77
2021/12/22 10:06:48;;;;;;;4.22;3.78;;;14.40;73.30;;;;;;2293481;62;30309;-77
2021/12/22 10:09:14;;;;;;;4.40;3.63;;;14.40;73.20;;;;;;2286068;62;30107;-78
2021/12/22 10:11:43;;;;;;;4.25;3.55;;;14.40;73.10;;;;;;2293226;62;30234;-78
2021/12/22 10:14:20;;;;;;;4.45;3.50;;;14.40;73.10;;;;;;2286077;62;30128;-76
2021/12/22 10:16:48;;;;;;;3.53;3.22;;;14.40;72.70;;;;;;2285879;62;30332;-76
2021/12/22 10:19:14;;;;;;;3.72;3.30;;;14.40;72.90;;;;;;2272165;62;29984;-77
2021/12/22 10:21:58;;;;;;;3.53;3.22;;;14.40;72.90;;;;;;2286122;62;30498;-78
2021/12/22 10:24:41;;;;;;;4.00;3.45;;;14.40;72.20;;;;;;2293556;62;29994;-75
2021/12/22 10:27:18;;;;;;;3.78;3.40;;;14.40;72.10;;;;;;2285745;62;30512;-75
2021/12/22 10:29:44;;;;;;;3.75;3.40;;;14.40;72.50;;;;;;2279735;62;30146;-76
2021/12/22 10:32:16;;;;;;;4.00;3.60;;;14.40;72.50;;;;;;2284764;62;30412;-76
2021/12/22 10:35:02;;;;;;;;;;;14.40;72.50;;;;;;2284989;62;30056;-76
2021/12/22 10:37:36;;;;;;;3.63;3.30;;;14.40;71.20;;;;;;2284448;62;31542;-76
2021/12/22 10:40:29;;;;;;;3.42;3.13;;;14.40;72.10;;;;;;2284313;62;30275;-77
2021/12/22 10:42:57;;;;;;;5.03;3.60;;;14.50;71.60;;;;;;2285084;62;30191;-75
2021/12/22 10:45:25;;;;;;;4.28;3.60;;;14.50;72.40;;;;;;2277660;62;30129;-75
2021/12/22 10:50:50;;;;;;;3.80;3.35;;;14.50;71.80;;;;;;2284639;62;30140;-71
2021/12/22 10:53:16;;;;;;;4.10;3.70;;;14.50;72.10;;;;;;2284270;62;30172;-70
2021/12/22 10:55:47;;;;;;;4.85;3.60;;;14.50;72.10;;;;;;2284882;62;30269;-72
2021/12/22 10:58:22;;;;;;;4.20;3.57;;;14.50;72.00;;;;;;2284441;62;30529;-75
2021/12/22 11:01:13;;;;;;;3.42;3.13;;;14.50;72.10;;;;;;2273658;62;30068;-76
2021/12/22 11:03:51;;;;;;;3.53;3.08;;;14.40;71.80;;;;;;2285165;62;30044;-74
2021/12/22 11:06:25;;;;;;;5.22;3.58;;;14.40;72.30;;;;;;2284967;62;30231;-78
2021/12/22 11:09:00;;;;;;;4.30;3.20;;;14.40;72.20;;;;;;2277466;62;30483;-77
2021/12/22 11:11:36;;;;;;;6.00;3.67;;;14.40;72.20;;;;;;2285014;62;30038;-75
2021/12/22 11:14:04;;;;;;;4.63;3.35;;;14.40;72.00;;;;;;2277700;62;30217;-76
2021/12/22 11:16:30;;;;;;;4.75;3.33;;;14.40;72.10;;;;;;2277496;62;30039;-76
2021/12/22 11:19:07;;;;;;;5.35;3.40;;;14.40;72.10;;;;;;2277424;62;30108;-76
2021/12/22 11:21:35;;;;;;;4.75;3.70;;;14.40;71.80;;;;;;2270570;62;30466;-76
2021/12/22 11:24:01;;;;;;;4.55;3.67;;;14.40;72.00;;;;;;2284932;62;30379;-76
2021/12/22 11:26:27;;;;;;;5.75;3.38;;;14.50;72.00;;;;;;2284796;62;30339;-74
2021/12/22 11:28:53;;;;;;;6.30;3.63;;;14.50;72.10;;;;;;2277253;62;30167;-76
2021/12/22 11:31:19;;;;;;;4.30;3.42;;;14.50;72.00;;;;;;2284826;62;30063;-77
2021/12/22 11:33:45;;;;;;;6.70;3.63;;;14.60;72.00;;;;;;2277425;62;30200;-76
2021/12/22 11:36:12;;;;;;;4.63;3.60;;;14.60;71.90;;;;;;2283894;62;31048;-77
2021/12/22 11:38:38;;;;;;;6.07;3.50;;;14.60;71.80;;;;;;2284327;62;31783;-78
2021/12/22 11:41:17;;;;;;;3.55;3.25;;;14.70;71.80;;;;;;2284256;62;30130;-77
2021/12/22 11:43:44;;;;;;;4.28;3.47;;;14.70;71.70;;;;;;2284635;62;29991;-77
2021/12/22 11:46:11;;;;;;;6.65;3.65;;;14.80;71.70;;;;;;2284122;62;32219;-78
2021/12/22 11:48:37;;;;;;;5.15;3.60;;;14.90;71.60;;;;;;2284800;62;31524;-76
2021/12/22 11:51:20;;;;;;;4.57;3.22;;;14.90;71.50;;;;;;2284085;62;30069;-78
2021/12/22 11:53:57;;;;;;;4.38;3.30;;;15.00;71.50;;;;;;2284903;62;30056;-79
2021/12/22 11:56:37;;;;;;;4.90;3.28;;;14.90;71.30;;;;;;2283877;62;31020;-77
2021/12/22 11:59:06;;;;;;;3.47;3.15;;;15.00;71.40;;;;;;2284254;62;30174;-78
2021/12/22 12:01:32;;;;;;;5.10;3.13;;;15.00;71.60;;;;;;2277359;62;30287;-77
2021/12/22 12:04:11;;;;;;;5.72;3.33;;;14.90;71.50;;;;;;2281801;62;30271;-77
2021/12/22 12:06:50;;;;;;;3.78;3.15;;;14.90;71.30;;;;;;2285095;62;30239;-77
2021/12/22 12:09:19;;;;;;;5.15;3.53;;;14.90;71.20;;;;;;2288123;62;29962;-78
2021/12/22 12:11:55;;;;;;;4.03;3.10;;;14.90;71.40;;;;;;2275153;62;30230;-76
2021/12/22 12:15:27;;;;;;;5.63;3.38;;;15.00;71.40;;;;;;2279529;62;30337;-78
2021/12/22 12:23:26;;;;;;;5.10;3.22;;;15.00;71.30;;;;;;2284532;62;30048;-77
2021/12/22 12:25:53;;;;;;;4.10;3.47;;;14.90;71.10;;;;;;2284419;62;30000;-79
2021/12/22 12:28:19;;;;;;;3.60;3.30;;;14.90;71.40;;;;;;2284643;62;30523;-78
2021/12/22 12:30:53;;;;;;;4.22;3.30;;;14.90;71.40;;;;;;2277996;62;30492;-78
2021/12/22 12:33:33;;;;;;;4.07;3.58;;;14.90;71.30;;;;;;2283662;62;30170;-80
2021/12/22 12:36:02;;;;;;;3.55;3.05;;;14.90;71.10;;;;;;2278418;62;30053;-79
2021/12/22 12:38:40;;;;;;;4.15;3.20;;;14.90;71.20;;;;;;2291704;62;30108;-85
2021/12/22 12:41:15;;;;;;;3.50;3.20;;;15.00;71.00;;;;;;2292830;62;30413;-79
2021/12/22 12:46:24;;;;;;;3.90;3.15;;;15.00;71.00;;;;;;2292541;62;29981;-71
2021/12/22 12:49:13;;;;;;;5.38;3.60;;;14.90;71.00;;;;;;2285202;62;30974;-78
2021/12/22 12:51:42;;;;;;;5.80;3.60;;;14.90;71.20;;;;;;2284628;62;30926;-75
2021/12/22 12:54:17;;;;;;;3.55;3.25;;;14.80;71.30;;;;;;2290549;62;30045;-72
2021/12/22 12:56:45;;;;;;;4.28;3.67;;;14.80;71.10;;;;;;2286684;62;29858;-73
2021/12/22 12:59:15;;;;;;;3.53;3.20;;;14.80;71.30;;;;;;2278377;62;30331;-74
2021/12/22 13:01:44;;;;;;;4.18;3.10;;;14.80;71.30;;;;;;2292287;62;30310;-75
2021/12/22 13:04:26;;;;;;;3.22;2.92;;;14.80;71.20;;;;;;2292687;62;30899;-75
2021/12/22 13:06:53;;;;;;;;;;;14.80;71.10;;;;;;2284838;62;30157;-75
2021/12/22 13:09:25;;;;;;;4.97;3.15;;;14.80;71.70;;;;;;2292020;62;30261;-76
2021/12/22 13:11:58;;;;;;;3.70;3.05;;;14.80;71.40;;;;;;2292107;62;30238;-73
2021/12/22 13:17:17;;;;;;;3.50;3.20;;;14.70;71.30;;;;;;2285897;62;30129;-73
2021/12/22 13:19:47;;;;;;;5.38;3.33;;;14.60;71.50;;;;;;2292561;62;30722;-73
2021/12/22 13:22:20;;;;;;;5.20;3.03;;;14.60;71.70;;;;;;2284679;62;29961;-73
2021/12/22 13:24:47;;;;;;;4.10;3.30;;;14.60;71.70;;;;;;2293154;62;30437;-73
2021/12/22 13:27:24;;;;;;;4.80;3.17;;;14.60;71.70;;;;;;2286512;62;30505;-73
2021/12/22 13:30:11;;;;;;;4.55;3.42;;;14.60;71.70;;;;;;2286928;62;30127;-73
2021/12/22 13:32:56;;;;;;;3.92;3.10;;;14.60;71.50;;;;;;2286555;62;30265;-74
2021/12/22 13:35:45;;;;;;;4.20;3.28;;;14.60;71.60;;;;;;2287407;62;30196;-73
2021/12/22 13:38:21;;;;;;;3.50;3.20;;;14.60;71.50;;;;;;2279931;62;30185;-73
2021/12/22 13:40:46;;;;;;;4.10;3.28;;;14.70;71.50;;;;;;2285600;62;30254;-73
2021/12/22 13:43:23;;;;;;;3.83;3.00;;;14.70;71.60;;;;;;2285231;62;29982;-73
2021/12/22 13:45:50;;;;;;;2.75;2.55;;;14.60;71.60;;;;;;2285559;62;30048;-73
2021/12/22 13:48:20;;;;;;;3.08;2.75;;;14.60;71.70;;;;;;2278029;62;30129;-74
2021/12/22 13:50:46;;;;;;;4.05;3.10;;;14.60;71.70;;;;;;2271008;62;30765;-75
2021/12/22 13:53:16;;;;;;;3.45;3.10;;;14.60;71.70;;;;;;2285423;62;30811;-74
2021/12/22 13:55:42;;;;;;;13.75;3.30;;;14.60;71.60;;;;;;2290164;62;29924;-71
2021/12/22 13:58:33;;;;;;;3.33;2.88;;;14.60;71.60;;;;;;2279179;62;30541;-72
2021/12/22 14:01:35;;;;;;;4.15;2.80;;;14.60;71.40;;;;;;2293797;62;32154;-72
2021/12/22 14:04:03;;;;;;;5.22;3.20;;;14.70;71.30;;;;;;2293503;62;30533;-72
2021/12/22 14:06:33;;;;;;;3.38;3.08;;;14.60;71.40;;;;;;2293694;62;30234;-74
2021/12/22 14:09:07;;;;;;;4.88;2.95;;;14.60;71.40;;;;;;2293548;62;30092;-75
2021/12/22 14:11:37;;;;;;;13.23;3.22;;;14.70;71.40;;;;;;2286354;62;30215;-73
2021/12/22 14:14:23;;;;;;;4.88;2.90;;;14.70;71.50;;;;;;2293502;62;30981;-73
2021/12/22 14:16:49;;;;;;;7.30;3.15;;;14.60;71.30;;;;;;2293052;62;30517;-74
2021/12/22 14:19:18;;;;;;;5.78;3.10;;;14.60;71.60;;;;;;2293194;62;30436;-73
2021/12/22 14:21:45;;;;;;;7.20;3.30;;;14.50;71.60;;;;;;2278371;62;30427;-74
2021/12/22 14:24:14;;;;;;;5.03;3.00;;;14.50;71.60;;;;;;2285330;62;30822;-73
2021/12/22 14:26:47;;;;;;;4.22;3.08;;;14.60;71.70;;;;;;2293059;62;30437;-74
2021/12/22 14:29:13;;;;;;;3.53;3.17;;;14.50;71.50;;;;;;2286068;62;30175;-73
2021/12/22 14:31:56;;;;;;;3.53;3.13;;;14.50;71.50;;;;;;2285812;62;30046;-73
2021/12/22 14:34:22;;;;;;;3.35;3.05;;;14.50;71.40;;;;;;2293427;62;30250;-74
2021/12/22 14:36:49;;;;;;;4.28;2.88;;;14.50;71.50;;;;;;2293415;62;29911;-73
2021/12/22 14:39:15;;;;;;;3.30;3.00;;;14.50;71.50;;;;;;2288666;62;30233;-73
2021/12/22 14:41:44;;;;;;;4.30;3.17;;;14.50;71.50;;;;;;2285082;62;30751;-73
2021/12/22 14:44:25;;;;;;;3.53;3.03;;;14.50;71.50;;;;;;2285205;62;30607;-74
2021/12/22 14:46:52;;;;;;;3.40;2.90;;;14.50;71.40;;;;;;2284917;62;29988;-74
2021/12/22 14:49:22;;;;;;;3.40;2.67;;;14.50;71.60;;;;;;2285124;62;30084;-74
2021/12/22 14:51:49;;;;;;;3.25;2.72;;;14.50;71.60;;;;;;2270959;62;31961;-74
2021/12/22 14:54:20;;;;;;;3.17;2.88;;;14.40;71.50;;;;;;2284878;62;30782;-74
2021/12/22 14:56:52;;;;;;;2.78;2.58;;;14.50;71.60;;;;;;2284470;62;30266;-74
2021/12/22 14:59:19;;;;;;;2.72;2.53;;;14.40;71.50;;;;;;2278779;62;30059;-74
2021/12/22 15:01:45;;;;;;;3.22;2.78;;;14.40;71.60;;;;;;2293287;62;30099;-74
2021/12/22 15:04:11;;;;;;;3.05;2.85;;;14.40;72.40;;;;;;2293272;62;30026;-74
2021/12/22 15:06:37;;;;;;;3.20;2.90;;;14.40;71.60;;;;;;2292828;62;30184;-73
2021/12/22 15:09:04;;;;;;;2.92;2.67;;;14.40;71.60;;;;;;2293285;62;29929;-74
2021/12/22 15:11:30;;;;;;;2.75;2.55;;;14.40;71.70;;;;;;2293235;62;30887;-74
2021/12/22 15:14:00;;;;;;;3.05;2.67;;;14.30;71.70;;;;;;2293039;62;30263;-74
2021/12/22 15:16:26;;;;;;;2.80;2.60;;;14.30;71.70;;;;;;2293186;62;30321;-74
2021/12/22 15:18:53;;;;;;;3.03;2.50;;;14.30;71.80;;;;;;2285858;62;30338;-74
2021/12/22 15:21:19;;;;;;;3.40;2.78;;;14.20;71.90;;;;;;2278601;62;31181;-74
2021/12/22 15:23:46;;;;;;;2.90;2.60;;;14.20;72.10;;;;;;2285821;62;30159;-74
2021/12/22 15:26:12;;;;;;;3.92;3.05;;;14.10;72.20;;;;;;2285768;62;30049;-73
2021/12/22 15:28:38;;;;;;;2.97;2.78;;;14.10;72.30;;;;;;2284015;62;30167;-74
2021/12/22 15:31:04;;;;;;;3.00;2.78;;;14.10;72.30;;;;;;2285112;62;30026;-73
2021/12/22 15:33:31;;;;;;;2.97;2.78;;;14.00;72.30;;;;;;2284775;62;32308;-74
2021/12/22 15:35:57;;;;;;;2.55;2.35;;;14.00;72.30;;;;;;2283891;62;30030;-73
2021/12/22 15:38:23;;;;;;;2.75;2.55;;;14.00;72.30;;;;;;2284348;62;31013;-73
2021/12/22 15:40:49;;;;;;;3.15;2.85;;;14.00;72.30;;;;;;2277406;62;30052;-73
2021/12/22 15:43:15;;;;;;;3.53;2.95;;;14.10;72.40;;;;;;2284006;62;30085;-73
2021/12/22 15:45:41;;;;;;;3.22;2.92;;;14.00;72.30;;;;;;2284451;62;30491;-73
2021/12/22 15:48:07;;;;;;;2.88;2.67;;;14.10;72.30;;;;;;2284140;62;30088;-73
2021/12/22 15:50:35;;;;;;;2.95;2.75;;;14.00;72.30;;;;;;2284510;62;30212;-73
2021/12/22 15:53:01;;;;;;;3.00;2.80;;;14.00;72.30;;;;;;2284190;62;30893;-73
2021/12/22 15:55:27;;;;;;;3.20;2.90;;;14.00;72.30;;;;;;2280648;62;30235;-73
2021/12/22 15:57:53;;;;;;;3.15;2.88;;;14.00;72.30;;;;;;2277205;62;30302;-73
2021/12/22 16:00:23;;;;;;;17.90;3.75;;;14.00;72.30;;;;;;2284341;62;32845;-75
2021/12/22 16:02:50;;;;;;;3.08;2.67;;;14.10;72.50;;;;;;2284237;62;30284;-73
2021/12/22 16:05:16;;;;;;;2.83;2.60;;;14.10;72.40;;;;;;2284599;62;30110;-74
2021/12/22 16:07:42;;;;;;;2.60;2.40;;;14.30;73.10;;;;;;2284773;62;29976;-72
2021/12/22 16:10:09;;;;;;;3.08;2.78;;;14.40;72.30;;;;;;2284785;62;30264;-73
2021/12/22 16:12:35;;;;;;;3.20;2.53;;;14.60;72.10;;;;;;2284046;62;30121;-74
2021/12/22 16:15:02;;;;;;;2.90;2.70;;;14.70;72.00;;;;;;2277363;62;29975;-73
2021/12/22 16:17:28;;;;;;;3.38;2.50;;;14.90;71.90;;;;;;2283873;62;30250;-75
2021/12/22 16:19:57;;;;;;;2.75;2.45;;;15.00;71.70;;;;;;2284586;62;31268;-74
2021/12/22 16:22:23;;;;;;;2.80;2.50;;;15.10;71.50;;;;;;2284524;62;30171;-75
2021/12/22 16:24:49;;;;;;;3.15;2.88;;;15.10;71.40;;;;;;2283814;62;30316;-76
2021/12/22 16:27:15;;;;;;;2.72;2.53;;;15.20;71.30;;;;;;2284589;62;30067;-74
2021/12/22 16:29:41;;;;;;;2.97;2.53;;;15.30;71.20;;;;;;2284425;62;30746;-75
2021/12/22 16:32:07;;;;;;;4.97;2.88;;;15.30;71.00;;;;;;2283709;62;32004;-72
2021/12/22 16:34:32;;;;;;;2.70;2.35;;;15.40;71.00;;;;;;2284624;62;29901;-74
2021/12/22 16:36:58;;;;;;;2.78;2.58;;;15.50;70.90;;;;;;2286768;62;30335;-75
2021/12/22 16:39:24;;;;;;;3.63;2.70;;;15.50;70.80;;;;;;2287705;62;30270;-75
2021/12/22 16:41:54;;;;;;;2.30;2.20;;;15.50;70.70;;;;;;2288678;62;30125;-75
2021/12/22 16:44:22;;;;;;;2.70;2.45;;;15.60;70.60;;;;;;2278749;62;30132;-75
2021/12/22 16:46:49;;;;;;;5.45;2.60;;;15.60;70.50;;;;;;2270143;62;30284;-75
2021/12/22 16:49:15;;;;;;;2.65;2.40;;;15.60;70.50;;;;;;2278457;62;31038;-75
2021/12/22 16:51:42;;;;;;;3.40;2.53;;;15.60;70.40;;;;;;2276574;62;30779;-75
2021/12/22 16:54:11;;;;;;;2.92;2.35;;;15.70;70.40;;;;;;2285390;62;30213;-79
